createdAt,value
2023-08-13T00:01:12.700Z,63.48
2023-08-13T00:03:40.754Z,63.50
2023-08-13T00:06:08.638Z,63.43
2023-08-13T00:08:36.393Z,63.41
2023-08-13T00:11:12.766Z,63.38
2023-08-13T00:13:41.666Z,63.61
2023-08-13T00:16:10.284Z,63.69
2023-08-13T00:18:38.325Z,63.56
2023-08-13T00:21:06.392Z,63.63
2023-08-13T00:23:34.161Z,63.68
2023-08-13T00:26:01.949Z,63.45
2023-08-13T00:28:29.806Z,63.45
2023-08-13T00:30:57.573Z,63.45
2023-08-13T00:33:25.481Z,63.46
2023-08-13T00:35:53.291Z,63.50
2023-08-13T00:38:21.012Z,63.44
2023-08-13T00:40:48.925Z,63.44
2023-08-13T00:43:16.628Z,63.45
2023-08-13T00:45:45.006Z,63.45
2023-08-13T00:48:13.577Z,63.28
2023-08-13T00:50:42.071Z,63.27
2023-08-13T00:53:11.537Z,63.30
2023-08-13T00:55:39.734Z,63.35
2023-08-13T00:58:07.525Z,63.34
2023-08-13T01:00:35.263Z,63.43
2023-08-13T01:03:02.973Z,63.56
2023-08-13T01:05:54.415Z,63.56
2023-08-13T01:08:41.718Z,63.45
2023-08-13T01:11:48.213Z,63.60
2023-08-13T01:14:26.222Z,63.52
2023-08-13T01:16:57.669Z,63.65
2023-08-13T01:19:25.732Z,63.66
2023-08-13T01:21:53.562Z,63.53
2023-08-13T01:24:21.624Z,63.55
2023-08-13T01:27:02.699Z,63.67
2023-08-13T01:29:41.732Z,63.58
2023-08-13T01:32:13.481Z,63.82
2023-08-13T01:34:43.000Z,64.00
2023-08-13T01:37:11.957Z,63.97
2023-08-13T01:39:40.485Z,64.00
2023-08-13T01:42:11.270Z,64.28
2023-08-13T01:44:38.997Z,64.35
2023-08-13T01:47:07.120Z,64.41
2023-08-13T01:49:35.490Z,64.43
2023-08-13T01:52:03.315Z,64.68
2023-08-13T01:54:31.057Z,64.79
2023-08-13T01:57:00.220Z,64.87
2023-08-13T01:59:28.009Z,65.18
2023-08-13T02:01:55.665Z,65.21
2023-08-13T02:04:23.580Z,65.44
2023-08-13T02:06:52.517Z,65.46
2023-08-13T02:09:20.267Z,65.61
2023-08-13T02:11:48.064Z,65.97
2023-08-13T02:14:15.853Z,65.70
2023-08-13T02:16:43.742Z,65.94
2023-08-13T02:19:11.979Z,66.37
2023-08-13T02:21:39.855Z,66.35
2023-08-13T02:24:07.853Z,66.75
2023-08-13T02:26:35.541Z,66.85
2023-08-13T02:29:03.311Z,67.20
2023-08-13T02:31:31.049Z,67.08
2023-08-13T02:33:58.753Z,67.33
2023-08-13T02:36:26.557Z,67.51
2023-08-13T02:38:54.265Z,67.88
2023-08-13T02:41:21.925Z,67.77
2023-08-13T02:43:54.726Z,68.12
2023-08-13T02:46:24.275Z,67.93
2023-08-13T02:48:57.069Z,68.05
2023-08-13T02:51:25.506Z,68.28
2023-08-13T02:53:53.802Z,68.78
2023-08-13T02:56:21.917Z,69.00
2023-08-13T02:58:49.730Z,69.20
2023-08-13T03:01:17.640Z,69.66
2023-08-13T03:03:52.883Z,69.71
2023-08-13T03:06:26.257Z,69.84
2023-08-13T03:08:54.278Z,69.73
2023-08-13T03:11:22.277Z,70.04
2023-08-13T03:13:50.487Z,70.25
2023-08-13T03:16:18.401Z,70.35
2023-08-13T03:18:46.660Z,70.62
2023-08-13T03:21:17.022Z,70.35
2023-08-13T03:23:44.774Z,70.48
2023-08-13T03:26:12.642Z,70.87
2023-08-13T03:28:40.914Z,71.14
2023-08-13T03:31:14.029Z,70.84
2023-08-13T03:33:48.098Z,70.70
2023-08-13T03:36:15.828Z,71.23
2023-08-13T03:38:43.589Z,71.31
2023-08-13T03:41:11.341Z,71.50
2023-08-13T03:43:39.172Z,71.44
2023-08-13T03:46:07.001Z,71.30
2023-08-13T03:48:34.882Z,71.46
2023-08-13T03:51:04.950Z,71.74
2023-08-13T03:53:33.705Z,71.97
2023-08-13T03:56:01.686Z,72.19
2023-08-13T03:58:31.492Z,72.52
2023-08-13T04:01:05.409Z,72.76
2023-08-13T04:03:33.711Z,72.97
2023-08-13T04:06:02.255Z,72.92
2023-08-13T04:08:30.541Z,72.97
2023-08-13T04:10:58.196Z,72.79
2023-08-13T04:13:25.822Z,72.90
2023-08-13T04:15:54.005Z,73.07
2023-08-13T04:18:22.192Z,73.29
2023-08-13T04:20:50.150Z,72.86
2023-08-13T04:23:18.974Z,72.59
2023-08-13T04:25:46.769Z,72.72
2023-08-13T04:28:15.000Z,72.69
2023-08-13T04:30:44.832Z,72.76
2023-08-13T04:33:12.557Z,73.00
2023-08-13T04:35:40.564Z,72.81
2023-08-13T04:38:08.509Z,72.62
2023-08-13T04:40:40.068Z,72.51
2023-08-13T04:43:08.351Z,72.49
2023-08-13T04:45:36.296Z,72.24
2023-08-13T04:48:04.418Z,72.44
2023-08-13T04:50:34.428Z,72.01
2023-08-13T04:53:02.172Z,72.06
2023-08-13T04:55:30.088Z,72.09
2023-08-13T04:57:57.939Z,72.13
2023-08-13T05:00:26.071Z,72.01
2023-08-13T05:02:53.934Z,72.36
2023-08-13T05:05:22.003Z,72.11
2023-08-13T05:07:50.689Z,72.22
2023-08-13T05:10:18.916Z,72.09
2023-08-13T05:12:47.213Z,71.99
2023-08-13T05:15:15.867Z,72.10
2023-08-13T05:17:43.543Z,72.03
2023-08-13T05:20:11.498Z,71.85
2023-08-13T05:22:39.355Z,71.81
2023-08-13T05:25:07.668Z,71.91
2023-08-13T05:27:35.824Z,71.57
2023-08-13T05:30:03.946Z,71.34
2023-08-13T05:32:31.930Z,70.99
2023-08-13T05:34:59.876Z,70.54
2023-08-13T05:37:28.102Z,70.22
2023-08-13T05:39:55.967Z,70.24
2023-08-13T05:42:23.686Z,70.00
2023-08-13T05:44:52.345Z,69.62
2023-08-13T05:47:20.134Z,69.37
2023-08-13T05:49:47.958Z,68.85
2023-08-13T05:52:17.041Z,68.33
2023-08-13T05:54:44.861Z,67.87
2023-08-13T05:57:13.234Z,67.40
2023-08-13T05:59:41.421Z,66.89
2023-08-13T06:02:09.556Z,66.73
2023-08-13T06:04:37.392Z,66.15
2023-08-13T06:07:05.440Z,65.92
2023-08-13T06:09:33.337Z,65.50
2023-08-13T06:12:01.866Z,65.18
2023-08-13T06:14:29.588Z,64.96
2023-08-13T06:17:08.526Z,64.73
2023-08-13T06:19:40.430Z,64.32
2023-08-13T06:22:08.308Z,63.73
2023-08-13T06:24:36.163Z,63.27
2023-08-13T06:27:04.197Z,62.85
2023-08-13T06:29:31.972Z,63.03
2023-08-13T06:31:59.714Z,62.61
2023-08-13T06:34:27.625Z,62.33
2023-08-13T06:36:55.570Z,62.22
2023-08-13T06:39:23.407Z,61.83
2023-08-13T06:41:51.285Z,61.54
2023-08-13T06:44:21.402Z,61.19
2023-08-13T06:46:49.837Z,60.35
2023-08-13T06:49:17.883Z,59.77
2023-08-13T06:51:45.832Z,59.40
2023-08-13T06:54:13.490Z,59.15
2023-08-13T06:56:41.207Z,58.60
2023-08-13T06:59:08.917Z,58.58
2023-08-13T07:01:36.903Z,58.66
2023-08-13T07:04:07.347Z,59.25
2023-08-13T07:06:35.846Z,59.06
2023-08-13T07:09:04.873Z,58.53
2023-08-13T07:11:37.474Z,58.16
2023-08-13T07:14:05.724Z,58.06
2023-08-13T07:16:33.612Z,57.17
2023-08-13T07:19:02.227Z,57.15
2023-08-13T07:21:29.974Z,57.06
2023-08-13T07:23:58.544Z,56.69
2023-08-13T07:26:26.312Z,56.00
2023-08-13T07:28:54.151Z,55.99
2023-08-13T07:31:22.105Z,55.94
2023-08-13T07:33:50.861Z,55.60
2023-08-13T07:36:18.648Z,55.73
2023-08-13T07:38:46.349Z,55.28
2023-08-13T07:41:14.510Z,54.79
2023-08-13T07:43:42.321Z,54.87
2023-08-13T07:46:10.186Z,54.01
2023-08-13T07:48:37.992Z,53.64
2023-08-13T07:51:05.739Z,54.59
2023-08-13T07:53:33.578Z,53.74
2023-08-13T07:56:01.535Z,53.63
2023-08-13T07:58:29.532Z,53.47
2023-08-13T08:00:57.588Z,53.33
2023-08-13T08:03:25.658Z,52.90
2023-08-13T08:05:54.143Z,53.02
2023-08-13T08:08:22.111Z,53.49
2023-08-13T08:10:49.883Z,52.94
2023-08-13T08:13:17.598Z,52.51
2023-08-13T08:15:45.332Z,52.49
2023-08-13T08:18:13.176Z,52.99
2023-08-13T08:20:41.086Z,52.68
2023-08-13T08:23:08.912Z,52.78
2023-08-13T08:25:36.772Z,52.22
2023-08-13T08:28:04.966Z,51.47
2023-08-13T08:30:32.809Z,51.20
2023-08-13T08:33:00.607Z,50.90
2023-08-13T08:35:28.496Z,51.19
2023-08-13T08:37:56.325Z,50.91
2023-08-13T08:40:24.163Z,50.91
2023-08-13T08:42:52.294Z,50.00
2023-08-13T08:45:21.008Z,49.32
2023-08-13T08:47:51.136Z,49.28
2023-08-13T08:50:19.058Z,49.68
2023-08-13T08:52:49.099Z,49.55
2023-08-13T08:55:17.660Z,49.08
2023-08-13T08:57:45.361Z,49.57
2023-08-13T09:00:13.584Z,49.14
2023-08-13T09:02:42.992Z,48.79
2023-08-13T09:05:10.993Z,49.12
2023-08-13T09:07:44.183Z,48.77
2023-08-13T09:10:12.725Z,47.93
2023-08-13T09:12:42.940Z,47.85
2023-08-13T09:15:12.540Z,47.27
2023-08-13T09:17:40.922Z,46.86
2023-08-13T09:20:20.580Z,46.07
2023-08-13T09:22:49.247Z,45.68
2023-08-13T09:25:17.638Z,45.39
2023-08-13T09:27:46.116Z,45.38
2023-08-13T09:30:21.448Z,43.75
2023-08-13T09:32:49.535Z,42.03
2023-08-13T09:35:17.319Z,41.41
2023-08-13T09:37:45.170Z,41.10
2023-08-13T09:40:13.168Z,40.13
2023-08-13T09:42:44.242Z,39.56
2023-08-13T09:45:12.712Z,39.69
2023-08-13T09:47:45.071Z,38.73
2023-08-13T09:50:18.876Z,37.63
2023-08-13T09:52:47.909Z,37.98
2023-08-13T09:55:21.417Z,37.41
2023-08-13T09:57:51.903Z,37.02
2023-08-13T10:00:19.976Z,36.95
2023-08-13T10:02:48.695Z,36.09
2023-08-13T10:05:16.965Z,36.07
2023-08-13T10:07:45.972Z,35.61
2023-08-13T10:10:14.011Z,35.75
2023-08-13T10:12:42.575Z,35.51
2023-08-13T10:15:10.740Z,34.54
2023-08-13T10:17:38.521Z,33.92
2023-08-13T10:20:07.120Z,33.87
2023-08-13T10:22:37.204Z,33.65
2023-08-13T10:25:09.241Z,32.87
2023-08-13T10:27:44.511Z,32.78
2023-08-13T10:30:14.688Z,32.84
2023-08-13T10:32:54.833Z,32.33
2023-08-13T10:35:23.864Z,32.14
2023-08-13T10:37:59.028Z,32.28
2023-08-13T10:40:28.269Z,32.66
2023-08-13T10:42:58.587Z,32.63
2023-08-13T10:45:35.471Z,31.73
2023-08-13T10:48:05.362Z,32.68
2023-08-13T10:50:40.226Z,32.68
2023-08-13T10:53:21.272Z,31.76
2023-08-13T10:55:51.534Z,31.94
2023-08-13T10:58:27.844Z,31.76
2023-08-13T11:01:11.988Z,32.04
2023-08-13T11:03:53.764Z,32.08
2023-08-13T11:06:23.485Z,32.65
2023-08-13T11:08:51.782Z,33.40
2023-08-13T11:11:20.935Z,32.59
2023-08-13T11:13:50.394Z,32.18
2023-08-13T11:16:18.579Z,32.11
2023-08-13T11:18:46.508Z,31.96
2023-08-13T11:21:15.213Z,32.04
2023-08-13T11:23:42.961Z,32.08
2023-08-13T11:26:10.808Z,32.21
2023-08-13T11:28:38.604Z,32.14
2023-08-13T11:31:06.330Z,32.28
2023-08-13T11:33:34.140Z,31.61
2023-08-13T11:36:02.136Z,32.29
2023-08-13T11:38:30.024Z,31.95
2023-08-13T11:40:57.828Z,32.08
2023-08-13T11:43:29.772Z,31.96
2023-08-13T11:45:57.529Z,32.01
2023-08-13T11:48:25.425Z,32.18
2023-08-13T11:51:23.443Z,32.52
2023-08-13T11:53:51.511Z,33.02
2023-08-13T11:56:20.492Z,33.21
2023-08-13T11:58:50.004Z,33.25
2023-08-13T12:01:17.835Z,33.47
2023-08-13T12:03:46.233Z,33.86
2023-08-13T12:06:14.697Z,33.99
2023-08-13T12:08:46.754Z,34.44
2023-08-13T12:11:14.709Z,34.82
2023-08-13T12:13:43.184Z,35.03
2023-08-13T12:16:11.225Z,35.23
2023-08-13T12:18:39.415Z,35.29
2023-08-13T12:21:07.139Z,35.60
2023-08-13T12:23:34.933Z,35.56
2023-08-13T12:26:03.581Z,35.96
2023-08-13T12:28:31.654Z,36.53
2023-08-13T12:30:59.550Z,36.87
2023-08-13T12:33:27.546Z,37.29
2023-08-13T12:35:55.374Z,38.06
2023-08-13T12:38:23.199Z,38.38
2023-08-13T12:40:50.992Z,38.81
2023-08-13T12:43:18.658Z,38.99
2023-08-13T12:45:46.652Z,39.52
2023-08-13T12:48:14.568Z,39.85
2023-08-13T12:50:42.380Z,39.74
2023-08-13T12:53:10.057Z,39.57
2023-08-13T12:55:37.847Z,39.51
2023-08-13T12:58:05.757Z,39.62
2023-08-13T13:00:33.573Z,39.71
2023-08-13T13:03:01.431Z,39.41
2023-08-13T13:05:29.261Z,39.76
2023-08-13T13:07:57.069Z,39.93
2023-08-13T13:10:25.420Z,40.50
2023-08-13T13:12:53.371Z,40.82
2023-08-13T13:15:21.741Z,41.09
2023-08-13T13:17:49.622Z,41.59
2023-08-13T13:20:19.285Z,42.40
2023-08-13T13:22:47.019Z,42.62
2023-08-13T13:25:14.905Z,43.13
2023-08-13T13:27:43.209Z,43.34
2023-08-13T13:30:12.693Z,43.01
2023-08-13T13:32:41.766Z,43.29
2023-08-13T13:35:10.171Z,43.28
2023-08-13T13:37:37.885Z,43.58
2023-08-13T13:40:06.890Z,43.52
2023-08-13T13:42:34.944Z,43.85
2023-08-13T13:45:03.290Z,43.73
2023-08-13T13:47:31.109Z,44.26
2023-08-13T13:49:58.915Z,44.59
2023-08-13T13:52:26.641Z,44.49
2023-08-13T13:54:55.412Z,44.73
2023-08-13T13:57:25.145Z,45.03
2023-08-13T13:59:52.822Z,45.16
2023-08-13T14:02:20.753Z,45.67
2023-08-13T14:04:48.616Z,46.15
2023-08-13T14:07:16.694Z,46.43
2023-08-13T14:09:44.566Z,47.05
2023-08-13T14:12:12.301Z,47.61
2023-08-13T14:14:40.267Z,48.40
2023-08-13T14:17:08.203Z,48.98
2023-08-13T14:19:35.981Z,48.85
2023-08-13T14:22:03.664Z,48.78
2023-08-13T14:24:31.413Z,49.24
2023-08-13T14:27:00.297Z,48.84
2023-08-13T14:29:28.053Z,48.57
2023-08-13T14:31:55.827Z,48.59
2023-08-13T14:34:23.710Z,48.69
2023-08-13T14:36:51.533Z,48.85
2023-08-13T14:39:19.900Z,49.18
2023-08-13T14:41:47.677Z,49.33
2023-08-13T14:44:16.512Z,49.63
2023-08-13T14:46:45.515Z,50.27
2023-08-13T14:49:13.561Z,49.67
2023-08-13T14:51:43.980Z,50.28
2023-08-13T14:54:13.469Z,50.77
2023-08-13T14:56:41.226Z,50.36
2023-08-13T14:59:09.056Z,50.10
2023-08-13T15:01:38.727Z,50.00
2023-08-13T15:04:07.241Z,49.82
2023-08-13T15:06:35.117Z,49.80
2023-08-13T15:09:02.891Z,49.93
2023-08-13T15:11:30.803Z,49.86
2023-08-13T15:13:58.627Z,48.86
2023-08-13T15:16:26.437Z,48.65
2023-08-13T15:18:54.325Z,48.44
2023-08-13T15:21:22.038Z,48.69
2023-08-13T15:23:49.828Z,48.61
2023-08-13T15:26:17.571Z,48.52
2023-08-13T15:28:45.587Z,48.30
2023-08-13T15:31:13.326Z,47.84
2023-08-13T15:33:41.369Z,47.62
2023-08-13T15:36:09.400Z,47.52
2023-08-13T15:38:37.128Z,47.50
2023-08-13T15:41:05.952Z,47.71
2023-08-13T15:43:33.638Z,47.63
2023-08-13T15:46:01.396Z,47.81
2023-08-13T15:48:29.399Z,48.16
2023-08-13T15:50:57.305Z,48.49
2023-08-13T15:53:25.154Z,48.78
2023-08-13T15:55:52.911Z,48.98
2023-08-13T15:58:20.784Z,49.11
2023-08-13T16:00:48.541Z,49.57
2023-08-13T16:03:16.378Z,49.71
2023-08-13T16:05:44.445Z,49.82
2023-08-13T16:08:12.366Z,50.08
2023-08-13T16:10:41.157Z,50.37
2023-08-13T16:13:09.251Z,50.67
2023-08-13T16:15:37.019Z,51.02
2023-08-13T16:18:05.161Z,51.06
2023-08-13T16:20:33.040Z,51.24
2023-08-13T16:23:00.904Z,51.30
2023-08-13T16:25:28.837Z,51.56
2023-08-13T16:27:58.517Z,51.88
2023-08-13T16:30:26.430Z,51.98
2023-08-13T16:32:54.394Z,52.10
2023-08-13T16:35:22.178Z,52.17
2023-08-13T16:37:50.154Z,52.34
2023-08-13T16:40:18.248Z,52.61
2023-08-13T16:43:00.148Z,52.58
2023-08-13T16:45:33.403Z,52.64
2023-08-13T16:48:01.615Z,52.85
2023-08-13T16:50:29.538Z,53.14
2023-08-13T16:52:57.400Z,53.28
2023-08-13T16:55:26.576Z,53.40
2023-08-13T16:57:54.419Z,53.66
2023-08-13T17:00:22.150Z,53.93
2023-08-13T17:02:50.256Z,54.06
2023-08-13T17:05:18.275Z,54.11
2023-08-13T17:07:46.123Z,54.24
2023-08-13T17:10:15.167Z,54.57
2023-08-13T17:12:43.756Z,54.36
2023-08-13T17:15:24.288Z,54.21
2023-08-13T17:17:55.549Z,54.21
2023-08-13T17:20:24.698Z,54.02
2023-08-13T17:22:52.596Z,53.98
2023-08-13T17:25:20.486Z,54.00
2023-08-13T17:27:48.486Z,54.01
2023-08-13T17:30:16.728Z,54.18
2023-08-13T17:32:44.883Z,54.38
2023-08-13T17:35:12.849Z,54.60
2023-08-13T17:37:41.353Z,54.98
2023-08-13T17:40:09.884Z,55.35
2023-08-13T17:42:37.794Z,55.77
2023-08-13T17:45:06.074Z,55.89
2023-08-13T17:47:34.368Z,56.22
2023-08-13T17:50:02.557Z,56.47
2023-08-13T17:52:30.322Z,56.66
2023-08-13T17:54:58.121Z,57.15
2023-08-13T17:57:26.033Z,57.83
2023-08-13T17:59:54.219Z,58.07
2023-08-13T18:02:40.273Z,58.23
2023-08-13T18:05:08.692Z,58.92
2023-08-13T18:07:38.107Z,59.05
2023-08-13T18:10:06.203Z,59.09
2023-08-13T18:12:34.637Z,59.81
2023-08-13T18:15:02.570Z,60.40
2023-08-13T18:17:30.395Z,60.53
2023-08-13T18:19:59.154Z,60.72
2023-08-13T18:22:27.301Z,60.70
2023-08-13T18:24:56.416Z,60.90
2023-08-13T18:27:24.254Z,61.04
2023-08-13T18:29:52.536Z,61.31
2023-08-13T18:32:20.268Z,61.56
2023-08-13T18:34:48.044Z,62.01
2023-08-13T18:37:16.346Z,62.40
2023-08-13T18:39:45.191Z,62.69
2023-08-13T18:42:15.533Z,62.54
2023-08-13T18:44:44.391Z,63.81
2023-08-13T18:47:12.173Z,63.76
2023-08-13T18:49:40.083Z,64.01
2023-08-13T18:52:08.288Z,64.36
2023-08-13T18:54:36.061Z,64.64
2023-08-13T18:57:04.021Z,64.96
2023-08-13T18:59:31.761Z,65.52
2023-08-13T19:01:59.498Z,66.09
2023-08-13T19:04:27.317Z,66.38
2023-08-13T19:06:55.144Z,66.60
2023-08-13T19:09:22.878Z,66.90
2023-08-13T19:11:51.110Z,67.36
2023-08-13T19:14:18.934Z,67.66
2023-08-13T19:16:47.253Z,67.92
2023-08-13T19:19:15.563Z,68.20
2023-08-13T19:21:43.390Z,68.59
2023-08-13T19:24:11.267Z,68.81
2023-08-13T19:26:39.069Z,69.24
2023-08-13T19:29:06.851Z,69.44
2023-08-13T19:31:34.655Z,69.56
2023-08-13T19:34:02.507Z,69.66
2023-08-13T19:36:30.287Z,70.11
2023-08-13T19:38:59.546Z,70.48
2023-08-13T19:41:28.307Z,70.79
2023-08-13T19:43:56.220Z,70.95
2023-08-13T19:46:24.150Z,71.21
2023-08-13T19:48:51.935Z,71.46
2023-08-13T19:51:19.762Z,71.71
2023-08-13T19:53:47.637Z,71.83
2023-08-13T19:56:15.426Z,72.10
2023-08-13T19:58:43.182Z,72.26
2023-08-13T20:01:11.048Z,72.40
2023-08-13T20:03:38.901Z,72.62
2023-08-13T20:06:06.787Z,72.87
2023-08-13T20:08:36.898Z,73.17
2023-08-13T20:11:04.726Z,73.35
2023-08-13T20:13:32.536Z,73.62
2023-08-13T20:16:07.088Z,73.85
2023-08-13T20:18:35.170Z,73.95
2023-08-13T20:21:03.199Z,74.13
2023-08-13T20:23:31.086Z,74.19
2023-08-13T20:25:58.931Z,74.26
2023-08-13T20:28:26.781Z,74.51
2023-08-13T20:30:54.835Z,74.75
2023-08-13T20:33:22.597Z,74.84
2023-08-13T20:35:50.339Z,75.04
2023-08-13T20:38:18.081Z,75.26
2023-08-13T20:40:45.796Z,75.42
2023-08-13T20:43:13.683Z,75.64
2023-08-13T20:45:42.285Z,75.86
2023-08-13T20:48:10.584Z,76.03
2023-08-13T20:50:38.438Z,76.06
2023-08-13T20:53:07.015Z,76.14
2023-08-13T20:55:36.623Z,76.42
2023-08-13T20:58:04.728Z,76.54
2023-08-13T21:00:32.455Z,76.71
2023-08-13T21:03:00.335Z,76.82
2023-08-13T21:05:28.988Z,76.95
2023-08-13T21:07:56.905Z,76.95
2023-08-13T21:10:24.946Z,77.10
2023-08-13T21:12:52.698Z,77.34
2023-08-13T21:15:20.391Z,77.53
2023-08-13T21:17:48.318Z,77.51
2023-08-13T21:20:16.112Z,77.67
2023-08-13T21:22:44.046Z,77.81
2023-08-13T21:25:11.801Z,77.94
2023-08-13T21:27:39.677Z,78.21
2023-08-13T21:30:12.525Z,78.33
2023-08-13T21:32:41.667Z,78.51
2023-08-13T21:35:12.215Z,78.64
2023-08-13T21:37:40.892Z,78.84
2023-08-13T21:40:09.407Z,78.89
2023-08-13T21:42:37.159Z,78.97
2023-08-13T21:45:05.177Z,79.18
2023-08-13T21:47:32.890Z,79.28
2023-08-13T21:50:00.575Z,79.37
2023-08-13T21:52:28.392Z,79.42
2023-08-13T21:54:56.164Z,79.50
2023-08-13T21:57:23.945Z,79.48
2023-08-13T21:59:51.967Z,79.64
2023-08-13T22:02:20.242Z,79.80
2023-08-13T22:04:49.510Z,79.91
2023-08-13T22:07:18.040Z,79.95
2023-08-13T22:09:45.932Z,80.13
2023-08-13T22:12:13.622Z,80.22
2023-08-13T22:14:41.386Z,80.33
2023-08-13T22:17:09.173Z,80.38
2023-08-13T22:19:51.569Z,80.44
2023-08-13T22:22:21.168Z,80.58
2023-08-13T22:24:48.953Z,80.83
2023-08-13T22:27:16.860Z,81.01
2023-08-13T22:29:45.240Z,81.13
2023-08-13T22:32:13.051Z,81.18
2023-08-13T22:34:42.603Z,81.43
2023-08-13T22:37:11.470Z,81.56
2023-08-13T22:39:39.418Z,81.58
2023-08-13T22:42:07.739Z,81.69
2023-08-13T22:44:35.501Z,81.65
2023-08-13T22:47:03.672Z,81.77
2023-08-13T22:49:36.695Z,81.85
2023-08-13T22:52:09.720Z,81.91
2023-08-13T22:54:39.288Z,82.28
2023-08-13T22:57:09.211Z,82.30
2023-08-13T22:59:38.291Z,82.39
2023-08-13T23:02:07.659Z,82.24
2023-08-13T23:04:35.442Z,82.14
2023-08-13T23:07:03.232Z,82.08
2023-08-13T23:09:31.541Z,82.10
2023-08-13T23:11:59.353Z,82.12
2023-08-13T23:14:27.169Z,82.19
2023-08-13T23:16:55.628Z,82.42
2023-08-13T23:19:24.182Z,82.40
2023-08-13T23:21:52.131Z,82.47
2023-08-13T23:24:20.533Z,82.62
2023-08-13T23:26:48.474Z,82.54
2023-08-13T23:29:16.417Z,82.44
2023-08-13T23:31:44.301Z,82.50
2023-08-13T23:34:12.182Z,82.62
2023-08-13T23:36:40.386Z,82.45
2023-08-13T23:39:08.618Z,82.40
2023-08-13T23:41:38.421Z,82.33
2023-08-13T23:44:07.016Z,82.38
2023-08-13T23:46:34.870Z,82.41
2023-08-13T23:49:03.001Z,82.39
2023-08-13T23:51:30.800Z,82.38
2023-08-13T23:53:58.581Z,82.40
2023-08-13T23:56:26.463Z,82.38
2023-08-13T23:58:54.185Z,82.38
